Time,TemperatureF,DewpointF,PressureIn,WindDirection,WindDirectionDegrees,WindSpeedMPH,WindSpeedGustMPH,Humidity,HourlyPrecipIn,Conditions,Clouds,dailyrainin,SoftwareType,DateUTC
2013-02-15 00:00:00,46.1,44.2,30.05,East,91,0.0,0.0,93,0.00,,---,0.00,VWS V14.01,2013-02-15 05:00:00,
2013-02-15 00:05:00,45.8,43.9,30.06,East,91,0.0,0.0,93,0.00,,---,0.00,VWS V14.01,2013-02-15 05:05:00,
2013-02-15 00:10:00,45.6,43.7,30.06,East,91,0.0,0.0,93,0.00,,---,0.00,VWS V14.01,2013-02-15 05:10:00,
2013-02-15 00:15:00,45.4,43.5,30.06,East,91,0.0,0.0,93,0.00,,---,0.00,VWS V14.01,2013-02-15 05:15:00,
2013-02-15 00:20:00,45.2,43.6,30.06,East,91,0.0,0.0,94,0.00,,---,0.00,VWS V14.01,2013-02-15 05:20:00,
2013-02-15 00:25:00,45.3,43.7,30.05,East,91,0.0,0.0,94,0.00,,---,0.00,VWS V14.01,2013-02-15 05:25:00,
2013-02-15 00:30:00,45.2,43.6,30.05,East,91,0.0,0.0,94,0.00,,---,0.00,VWS V14.01,2013-02-15 05:30:00,
2013-02-15 00:35:00,45.3,43.7,30.05,East,91,0.0,0.0,94,0.00,,---,0.00,VWS V14.01,2013-02-15 05:35:00,
2013-02-15 00:40:00,45.8,44.5,30.05,East,91,0.0,0.0,95,0.00,,---,0.00,VWS V14.01,2013-02-15 05:40:00,
2013-02-15 00:45:00,46.1,44.8,30.05,East,91,0.0,0.0,95,0.00,,---,0.00,VWS V14.01,2013-02-15 05:45:00,
2013-02-15 00:50:00,45.8,44.2,30.05,East,91,0.0,0.0,94,0.00,,---,0.00,VWS V14.01,2013-02-15 05:50:00,
2013-02-15 00:55:00,45.2,43.6,30.05,East,91,0.0,0.0,94,0.00,,---,0.00,VWS V14.01,2013-02-15 05:55:00,
2013-02-15 01:00:00,45.4,43.8,30.06,East,91,0.0,0.0,94,0.00,,---,0.00,VWS V14.01,2013-02-15 06:00:00,
2013-02-15 01:05:00,45.8,44.5,30.06,East,91,0.0,0.0,95,0.00,,---,0.00,VWS V14.01,2013-02-15 06:05:00,
2013-02-15 01:10:00,45.9,44.5,30.05,East,91,0.0,0.0,95,0.00,,---,0.00,VWS V14.01,2013-02-15 06:10:00,
2013-02-15 01:15:00,46.0,44.7,30.05,East,91,0.0,0.0,95,0.00,,---,0.00,VWS V14.01,2013-02-15 06:15:00,
2013-02-15 01:20:00,46.0,44.4,30.05,East,91,0.0,0.0,94,0.00,,---,0.00,VWS V14.01,2013-02-15 06:20:00,
2013-02-15 01:25:00,46.0,44.4,30.05,East,91,0.0,0.0,94,0.00,,---,0.00,VWS V14.01,2013-02-15 06:25:00,
2013-02-15 01:30:00,46.1,44.8,30.05,East,91,0.0,0.0,95,0.00,,---,0.00,VWS V14.01,2013-02-15 06:30:00,
2013-02-15 01:35:00,46.2,44.8,30.05,East,91,0.0,0.0,95,0.00,,---,0.00,VWS V14.01,2013-02-15 06:35:00,
2013-02-15 01:40:00,46.1,44.5,30.05,East,91,0.0,0.0,94,0.00,,---,0.00,VWS V14.01,2013-02-15 06:40:00,
2013-02-15 01:45:00,45.9,44.3,30.05,East,91,0.0,0.0,94,0.00,,---,0.00,VWS V14.01,2013-02-15 06:45:00,
2013-02-15 01:50:00,45.7,44.1,30.05,East,91,0.0,0.0,94,0.00,,---,0.00,VWS V14.01,2013-02-15 06:50:00,
2013-02-15 01:55:00,45.6,44.0,30.05,East,91,0.0,0.0,94,0.00,,---,0.00,VWS V14.01,2013-02-15 06:55:00,
2013-02-15 02:00:00,45.5,43.9,30.05,East,91,0.0,0.0,94,0.00,,---,0.00,VWS V14.01,2013-02-15 07:00:00,
2013-02-15 02:05:00,45.5,43.9,30.05,East,91,0.0,0.0,94,0.00,,---,0.00,VWS V14.01,2013-02-15 07:05:00,
2013-02-15 02:10:00,45.6,44.0,30.05,East,91,0.0,0.0,94,0.00,,---,0.00,VWS V14.01,2013-02-15 07:10:00,
2013-02-15 02:15:00,45.7,43.8,30.05,East,91,0.0,0.0,93,0.00,,---,0.00,VWS V14.01,2013-02-15 07:15:00,
2013-02-15 02:20:00,45.6,43.7,30.05,East,91,0.0,0.0,93,0.00,,---,0.00,VWS V14.01,2013-02-15 07:20:00,
2013-02-15 02:25:00,45.4,43.5,30.05,East,91,0.0,0.0,93,0.00,,---,0.00,VWS V14.01,2013-02-15 07:25:00,
2013-02-15 02:30:00,45.2,43.3,30.05,East,91,0.0,0.0,93,0.00,,---,0.00,VWS V14.01,2013-02-15 07:30:00,
2013-02-15 02:35:00,45.0,43.1,30.05,East,91,0.0,0.0,93,0.00,,---,0.00,VWS V14.01,2013-02-15 07:35:00,
2013-02-15 02:40:00,44.9,43.0,30.04,East,91,0.0,0.0,93,0.00,,---,0.00,VWS V14.01,2013-02-15 07:40:00,
2013-02-15 02:45:00,44.7,42.8,30.04,East,91,0.0,0.0,93,0.00,,---,0.00,VWS V14.01,2013-02-15 07:45:00,
2013-02-15 02:50:00,44.6,42.7,30.04,East,91,0.0,0.0,93,0.00,,---,0.00,VWS V14.01,2013-02-15 07:50:00,
2013-02-15 02:55:00,44.4,42.5,30.04,East,91,0.0,0.0,93,0.00,,---,0.00,VWS V14.01,2013-02-15 07:55:00,
2013-02-15 03:00:00,44.3,42.4,30.04,East,91,0.0,0.0,93,0.00,,---,0.00,VWS V14.01,2013-02-15 08:00:00,
2013-02-15 03:05:00,44.2,42.3,30.04,East,91,0.0,0.0,93,0.00,,---,0.00,VWS V14.01,2013-02-15 08:05:00,
2013-02-15 03:10:00,44.0,42.1,30.04,East,91,0.0,0.0,93,0.00,,---,0.00,VWS V14.01,2013-02-15 08:10:00,
2013-02-15 03:15:00,43.9,42.3,30.04,East,91,0.0,0.0,94,0.00,,---,0.00,VWS V14.01,2013-02-15 08:15:00,
2013-02-15 03:16:00,43.9,42.0,30.04,East,91,0.0,0.0,93,0.00,,---,0.00,VWS V14.01,2013-02-15 08:16:00,
2013-02-15 03:20:00,44.0,42.4,30.04,East,91,0.0,2.0,94,0.00,,---,0.00,VWS V14.01,2013-02-15 08:20:00,
2013-02-15 03:21:00,43.9,42.3,30.04,East,91,1.0,2.0,94,0.00,,---,0.00,VWS V14.01,2013-02-15 08:21:00,
2013-02-15 03:25:00,44.2,42.6,30.04,East,91,0.0,2.0,94,0.00,,---,0.00,VWS V14.01,2013-02-15 08:25:00,
2013-02-15 03:26:00,44.1,42.5,30.04,East,91,0.0,1.0,94,0.00,,---,0.00,VWS V14.01,2013-02-15 08:26:00,
2013-02-15 03:30:00,44.2,42.3,30.03,East,91,0.0,0.0,93,0.00,,---,0.00,VWS V14.01,2013-02-15 08:30:00,
2013-02-15 03:31:00,44.2,42.3,30.03,East,91,0.0,0.0,93,0.00,,---,0.00,VWS V14.01,2013-02-15 08:31:00,
2013-02-15 03:35:00,44.2,42.3,30.03,East,91,0.0,0.0,93,0.00,,---,0.00,VWS V14.01,2013-02-15 08:35:00,
2013-02-15 03:36:00,44.2,42.3,30.03,East,91,0.0,0.0,93,0.00,,---,0.00,VWS V14.01,2013-02-15 08:36:00,
2013-02-15 03:40:00,44.3,42.4,30.03,East,91,0.0,1.0,93,0.00,,---,0.00,VWS V14.01,2013-02-15 08:40:00,
2013-02-15 03:41:00,44.3,42.4,30.03,East,91,0.0,2.0,93,0.00,,---,0.00,VWS V14.01,2013-02-15 08:41:00,
2013-02-15 03:45:00,44.4,42.5,30.03,East,91,1.0,5.0,93,0.00,,---,0.00,VWS V14.01,2013-02-15 08:45:00,
2013-02-15 03:46:00,44.4,42.5,30.03,East,91,1.0,5.0,93,0.00,,---,0.00,VWS V14.01,2013-02-15 08:46:00,
2013-02-15 03:50:00,44.4,42.5,30.02,East,88,0.0,4.0,93,0.00,,---,0.00,VWS V14.01,2013-02-15 08:50:00,
2013-02-15 03:51:00,44.4,42.5,30.02,East,89,4.0,4.0,93,0.00,,---,0.00,VWS V14.01,2013-02-15 08:51:00,
2013-02-15 03:55:00,44.4,42.5,30.03,East,82,1.0,5.0,93,0.00,,---,0.00,VWS V14.01,2013-02-15 08:55:00,
2013-02-15 03:56:00,44.4,42.5,30.03,East,82,4.0,5.0,93,0.00,,---,0.00,VWS V14.01,2013-02-15 08:56:00,
2013-02-15 04:00:00,44.5,42.3,30.03,East,80,4.0,4.0,92,0.00,,---,0.00,VWS V14.01,2013-02-15 09:00:00,
2013-02-15 04:01:00,44.5,42.6,30.03,East,81,2.0,5.0,93,0.00,,---,0.00,VWS V14.01,2013-02-15 09:01:00,
2013-02-15 04:05:00,44.5,42.3,30.02,East,80,4.0,4.0,92,0.00,,---,0.00,VWS V14.01,2013-02-15 09:05:00,
2013-02-15 04:06:00,44.5,42.3,30.02,East,80,2.0,3.0,92,0.00,,---,0.00,VWS V14.01,2013-02-15 09:06:00,
2013-02-15 04:10:00,44.5,42.3,30.02,ENE,69,2.0,5.0,92,0.00,,---,0.00,VWS V14.01,2013-02-15 09:10:00,
2013-02-15 04:11:00,44.5,42.3,30.02,ENE,69,5.0,6.0,92,0.00,,---,0.00,VWS V14.01,2013-02-15 09:11:00,
2013-02-15 04:15:00,44.4,42.2,30.03,ENE,69,2.0,4.0,92,0.00,,---,0.00,VWS V14.01,2013-02-15 09:15:00,
2013-02-15 04:16:00,44.4,42.2,30.02,ENE,69,3.0,4.0,92,0.00,,---,0.00,VWS V14.01,2013-02-15 09:16:00,
2013-02-15 04:20:00,44.2,41.7,30.03,ENE,69,2.0,3.0,91,0.00,,---,0.00,VWS V14.01,2013-02-15 09:20:00,
2013-02-15 04:21:00,44.2,42.0,30.03,ENE,69,1.0,3.0,92,0.00,,---,0.00,VWS V14.01,2013-02-15 09:21:00,
2013-02-15 04:25:00,44.0,41.8,30.03,ENE,69,0.0,3.0,92,0.00,,---,0.00,VWS V14.01,2013-02-15 09:25:00,
2013-02-15 04:26:00,44.0,41.8,30.03,ENE,69,1.0,3.0,92,0.00,,---,0.00,VWS V14.01,2013-02-15 09:26:00,
2013-02-15 04:30:00,43.9,41.7,30.03,ENE,69,4.0,5.0,92,0.00,,---,0.00,VWS V14.01,2013-02-15 09:30:00,
2013-02-15 04:31:00,43.9,41.7,30.03,ENE,69,2.0,5.0,92,0.00,,---,0.00,VWS V14.01,2013-02-15 09:31:00,
2013-02-15 04:35:00,44.0,41.8,30.03,ENE,68,5.0,7.0,92,0.00,,---,0.00,VWS V14.01,2013-02-15 09:35:00,
2013-02-15 04:36:00,44.0,41.8,30.03,ENE,68,7.0,7.0,92,0.00,,---,0.00,VWS V14.01,2013-02-15 09:36:00,
2013-02-15 04:40:00,43.9,41.5,30.04,ENE,68,1.0,4.0,91,0.00,,---,0.00,VWS V14.01,2013-02-15 09:40:00,
2013-02-15 04:41:00,44.0,41.5,30.04,ENE,68,0.0,4.0,91,0.00,,---,0.00,VWS V14.01,2013-02-15 09:41:00,
2013-02-15 04:45:00,43.8,41.6,30.03,ENE,68,2.0,4.0,92,0.00,,---,0.00,VWS V14.01,2013-02-15 09:45:00,
2013-02-15 04:46:00,43.8,41.6,30.03,ENE,68,3.0,4.0,92,0.00,,---,0.00,VWS V14.01,2013-02-15 09:46:00,
2013-02-15 04:50:00,43.7,41.5,30.04,ENE,68,0.0,0.0,92,0.00,,---,0.00,VWS V14.01,2013-02-15 09:50:00,
2013-02-15 04:51:00,43.7,41.5,30.04,ENE,68,0.0,3.0,92,0.00,,---,0.00,VWS V14.01,2013-02-15 09:51:00,
2013-02-15 04:55:00,43.5,41.0,30.04,ENE,68,0.0,0.0,91,0.00,,---,0.00,VWS V14.01,2013-02-15 09:55:00,
2013-02-15 04:56:00,43.6,41.2,30.04,ENE,68,0.0,1.0,91,0.00,,---,0.00,VWS V14.01,2013-02-15 09:56:00,
2013-02-15 05:00:00,43.4,41.0,30.05,ENE,68,0.0,0.0,91,0.00,,---,0.00,VWS V14.01,2013-02-15 10:00:00,
2013-02-15 05:01:00,43.4,41.0,30.05,ENE,68,0.0,0.0,91,0.00,,---,0.00,VWS V14.01,2013-02-15 10:01:00,
2013-02-15 05:05:00,43.3,40.8,30.05,ENE,68,0.0,0.0,91,0.00,,---,0.00,VWS V14.01,2013-02-15 10:05:00,
2013-02-15 05:06:00,43.3,40.8,30.05,ENE,68,0.0,0.0,91,0.00,,---,0.00,VWS V14.01,2013-02-15 10:06:00,
2013-02-15 05:10:00,43.3,41.1,30.05,ENE,68,1.0,3.0,92,0.00,,---,0.00,VWS V14.01,2013-02-15 10:10:00,
2013-02-15 05:11:00,43.2,40.8,30.05,ENE,68,3.0,3.0,91,0.00,,---,0.00,VWS V14.01,2013-02-15 10:11:00,
2013-02-15 05:15:00,43.3,40.8,30.05,ENE,68,0.0,2.0,91,0.00,,---,0.00,VWS V14.01,2013-02-15 10:15:00,
2013-02-15 05:16:00,43.3,40.8,30.05,ENE,68,2.0,3.0,91,0.00,,---,0.00,VWS V14.01,2013-02-15 10:16:00,
2013-02-15 05:20:00,43.3,40.8,30.05,ENE,68,2.0,5.0,91,0.00,,---,0.00,VWS V14.01,2013-02-15 10:20:00,
2013-02-15 05:21:00,43.3,40.8,30.05,ENE,68,3.0,3.0,91,0.00,,---,0.00,VWS V14.01,2013-02-15 10:21:00,
2013-02-15 05:25:00,43.4,41.0,30.05,ENE,68,0.0,1.0,91,0.00,,---,0.00,VWS V14.01,2013-02-15 10:25:00,
2013-02-15 05:26:00,43.4,41.0,30.05,ENE,68,0.0,3.0,91,0.00,,---,0.00,VWS V14.01,2013-02-15 10:26:00,
2013-02-15 05:30:00,43.6,41.2,30.05,ENE,68,0.0,0.0,91,0.00,,---,0.00,VWS V14.01,2013-02-15 10:30:00,
2013-02-15 05:31:00,43.6,41.2,30.05,ENE,68,0.0,4.0,91,0.00,,---,0.00,VWS V14.01,2013-02-15 10:31:00,
2013-02-15 05:35:00,43.8,41.1,30.05,ENE,66,7.0,7.0,90,0.00,,---,0.00,VWS V14.01,2013-02-15 10:35:00,
2013-02-15 05:36:00,43.8,41.1,30.05,ENE,67,1.0,5.0,90,0.00,,---,0.00,VWS V14.01,2013-02-15 10:36:00,
2013-02-15 05:40:00,44.0,41.3,30.05,ENE,61,2.0,6.0,90,0.00,,---,0.00,VWS V14.01,2013-02-15 10:40:00,
2013-02-15 05:41:00,44.0,41.3,30.05,ENE,63,4.0,6.0,90,0.00,,---,0.00,VWS V14.01,2013-02-15 10:41:00,
2013-02-15 05:45:00,44.0,41.3,30.05,ENE,57,3.0,4.0,90,0.00,,---,0.00,VWS V14.01,2013-02-15 10:45:00,
2013-02-15 05:46:00,44.0,41.3,30.05,ENE,57,2.0,5.0,90,0.00,,---,0.00,VWS V14.01,2013-02-15 10:46:00,
2013-02-15 05:50:00,44.0,41.0,30.05,NE,56,1.0,7.0,89,0.00,,---,0.00,VWS V14.01,2013-02-15 10:50:00,
2013-02-15 05:51:00,44.0,41.3,30.05,NE,56,5.0,7.0,90,0.00,,---,0.00,VWS V14.01,2013-02-15 10:51:00,
2013-02-15 05:55:00,43.8,40.8,30.05,NE,56,3.0,5.0,89,0.00,,---,0.00,VWS V14.01,2013-02-15 10:55:00,
2013-02-15 05:56:00,43.8,40.8,30.05,NE,56,3.0,5.0,89,0.00,,---,0.00,VWS V14.01,2013-02-15 10:56:00,
2013-02-15 06:00:00,43.7,41.0,30.05,NE,56,3.0,5.0,90,0.00,,---,0.00,VWS V14.01,2013-02-15 11:00:00,
2013-02-15 06:01:00,43.7,41.0,30.05,NE,56,5.0,5.0,90,0.00,,---,0.00,VWS V14.01,2013-02-15 11:01:00,
2013-02-15 06:05:00,43.6,40.6,30.06,NE,56,1.0,4.0,89,0.00,,---,0.00,VWS V14.01,2013-02-15 11:05:00,
2013-02-15 06:06:00,43.6,40.6,30.06,NE,56,3.0,5.0,89,0.00,,---,0.00,VWS V14.01,2013-02-15 11:06:00,
2013-02-15 06:10:00,43.2,40.2,30.06,NE,56,2.0,3.0,89,0.00,,---,0.00,VWS V14.01,2013-02-15 11:10:00,
2013-02-15 06:11:00,43.3,40.6,30.06,NE,56,2.0,3.0,90,0.00,,---,0.00,VWS V14.01,2013-02-15 11:11:00,
2013-02-15 06:15:00,43.1,40.4,30.06,NE,56,3.0,4.0,90,0.00,,---,0.00,VWS V14.01,2013-02-15 11:15:00,
2013-02-15 06:16:00,43.1,40.4,30.06,NE,56,2.0,4.0,90,0.00,,---,0.00,VWS V14.01,2013-02-15 11:16:00,
2013-02-15 06:20:00,43.1,40.4,30.06,NE,56,1.0,4.0,90,0.00,,---,0.00,VWS V14.01,2013-02-15 11:20:00,
2013-02-15 06:21:00,43.1,40.4,30.06,NE,56,3.0,4.0,90,0.00,,---,0.00,VWS V14.01,2013-02-15 11:21:00,
2013-02-15 06:25:00,42.9,40.2,30.06,NE,56,0.0,2.0,90,0.00,,---,0.00,VWS V14.01,2013-02-15 11:25:00,
2013-02-15 06:26:00,42.9,40.2,30.06,NE,56,1.0,2.0,90,0.00,,---,0.00,VWS V14.01,2013-02-15 11:26:00,
2013-02-15 06:30:00,42.6,39.9,30.06,NE,56,0.0,0.0,90,0.00,,---,0.00,VWS V14.01,2013-02-15 11:30:00,
2013-02-15 06:31:00,42.7,40.0,30.06,NE,56,0.0,0.0,90,0.00,,---,0.00,VWS V14.01,2013-02-15 11:31:00,
2013-02-15 06:35:00,42.4,39.7,30.06,NE,56,0.0,0.0,90,0.00,,---,0.00,VWS V14.01,2013-02-15 11:35:00,
2013-02-15 06:36:00,42.4,39.7,30.06,NE,56,0.0,0.0,90,0.00,,---,0.00,VWS V14.01,2013-02-15 11:36:00,
2013-02-15 06:40:00,42.3,39.6,30.06,NE,56,0.0,0.0,90,0.00,,---,0.00,VWS V14.01,2013-02-15 11:40:00,
2013-02-15 06:41:00,42.3,39.6,30.06,NE,56,0.0,0.0,90,0.00,,---,0.00,VWS V14.01,2013-02-15 11:41:00,
2013-02-15 06:45:00,42.2,39.8,30.07,NE,56,0.0,0.0,91,0.00,,---,0.00,VWS V14.01,2013-02-15 11:45:00,
2013-02-15 06:46:00,42.2,39.8,30.07,NE,56,0.0,0.0,91,0.00,,---,0.00,VWS V14.01,2013-02-15 11:46:00,
2013-02-15 06:50:00,42.1,39.7,30.07,NE,56,0.0,0.0,91,0.00,,---,0.00,VWS V14.01,2013-02-15 11:50:00,
2013-02-15 06:51:00,42.1,39.7,30.07,NE,56,0.0,0.0,91,0.00,,---,0.00,VWS V14.01,2013-02-15 11:51:00,
2013-02-15 06:55:00,41.9,39.5,30.07,NE,56,0.0,0.0,91,0.00,,---,0.00,VWS V14.01,2013-02-15 11:55:00,
2013-02-15 06:56:00,42.0,39.6,30.07,NE,56,0.0,0.0,91,0.00,,---,0.00,VWS V14.01,2013-02-15 11:56:00,
2013-02-15 07:00:00,41.8,39.4,30.07,NE,56,0.0,0.0,91,0.00,,---,0.00,VWS V14.01,2013-02-15 12:00:00,
2013-02-15 07:01:00,41.8,39.4,30.07,NE,56,0.0,0.0,91,0.00,,---,0.00,VWS V14.01,2013-02-15 12:01:00,
2013-02-15 07:05:00,41.7,39.3,30.07,NE,56,0.0,0.0,91,0.00,,---,0.00,VWS V14.01,2013-02-15 12:05:00,
2013-02-15 07:06:00,41.7,39.3,30.07,NE,56,0.0,0.0,91,0.00,,---,0.00,VWS V14.01,2013-02-15 12:06:00,
2013-02-15 07:10:00,41.6,39.2,30.07,NE,56,0.0,0.0,91,0.00,,---,0.00,VWS V14.01,2013-02-15 12:10:00,
2013-02-15 07:11:00,41.6,39.2,30.07,NE,56,0.0,0.0,91,0.00,,---,0.00,VWS V14.01,2013-02-15 12:11:00,
2013-02-15 07:15:00,41.4,39.0,30.08,NE,56,0.0,0.0,91,0.00,,---,0.00,VWS V14.01,2013-02-15 12:15:00,
2013-02-15 07:16:00,41.4,39.0,30.08,NE,56,0.0,0.0,91,0.00,,---,0.00,VWS V14.01,2013-02-15 12:16:00,
2013-02-15 07:20:00,41.3,38.9,30.08,NE,56,0.0,0.0,91,0.00,,---,0.00,VWS V14.01,2013-02-15 12:20:00,
2013-02-15 07:21:00,41.3,38.9,30.08,NE,56,0.0,0.0,91,0.00,,---,0.00,VWS V14.01,2013-02-15 12:21:00,
2013-02-15 07:25:00,41.2,38.8,30.08,NE,56,0.0,0.0,91,0.00,,---,0.00,VWS V14.01,2013-02-15 12:25:00,
2013-02-15 07:26:00,41.2,38.8,30.08,NE,56,0.0,0.0,91,0.00,,---,0.00,VWS V14.01,2013-02-15 12:26:00,
2013-02-15 07:30:00,41.3,39.2,30.08,NE,56,0.0,0.0,92,0.00,,---,0.00,VWS V14.01,2013-02-15 12:30:00,
2013-02-15 07:31:00,41.3,39.2,30.08,NE,56,0.0,0.0,92,0.00,,---,0.00,VWS V14.01,2013-02-15 12:31:00,
2013-02-15 07:35:00,41.6,39.5,30.08,NE,56,0.0,0.0,92,0.00,,---,0.00,VWS V14.01,2013-02-15 12:35:00,
2013-02-15 07:36:00,41.6,39.5,30.08,NE,56,0.0,0.0,92,0.00,,---,0.00,VWS V14.01,2013-02-15 12:36:00,
2013-02-15 07:40:00,42.1,40.2,30.08,NE,56,0.0,0.0,93,0.00,,---,0.00,VWS V14.01,2013-02-15 12:40:00,
2013-02-15 07:41:00,42.0,39.8,30.08,NE,56,0.0,0.0,92,0.00,,---,0.00,VWS V14.01,2013-02-15 12:41:00,
2013-02-15 07:45:00,42.8,40.6,30.08,NE,56,0.0,0.0,92,0.00,,---,0.00,VWS V14.01,2013-02-15 12:45:00,
2013-02-15 07:46:00,42.7,40.5,30.08,NE,56,0.0,0.0,92,0.00,,---,0.00,VWS V14.01,2013-02-15 12:46:00,
2013-02-15 07:50:00,43.3,40.8,30.08,NE,56,2.0,3.0,91,0.00,,---,0.00,VWS V14.01,2013-02-15 12:50:00,
2013-02-15 07:51:00,43.2,41.0,30.08,NE,56,0.0,3.0,92,0.00,,---,0.00,VWS V14.01,2013-02-15 12:51:00,
2013-02-15 07:55:00,43.6,40.9,30.08,NE,56,3.0,4.0,90,0.00,,---,0.00,VWS V14.01,2013-02-15 12:55:00,
2013-02-15 07:56:00,43.6,41.2,30.08,NE,56,3.0,4.0,91,0.00,,---,0.00,VWS V14.01,2013-02-15 12:56:00,
2013-02-15 08:00:00,43.9,41.2,30.08,NE,56,2.0,4.0,90,0.00,,---,0.00,VWS V14.01,2013-02-15 13:00:00,
2013-02-15 08:01:00,43.8,41.1,30.08,NE,56,2.0,4.0,90,0.00,,---,0.00,VWS V14.01,2013-02-15 13:01:00,
2013-02-15 08:05:00,44.2,41.5,30.09,NE,56,0.0,4.0,90,0.00,,---,0.00,VWS V14.01,2013-02-15 13:05:00,
2013-02-15 08:06:00,44.2,41.5,30.09,NE,56,0.0,4.0,90,0.00,,---,0.00,VWS V14.01,2013-02-15 13:06:00,
2013-02-15 08:10:00,44.5,41.5,30.08,NE,56,2.0,4.0,89,0.00,,---,0.00,VWS V14.01,2013-02-15 13:10:00,
2013-02-15 08:11:00,44.5,41.5,30.08,NE,56,3.0,5.0,89,0.00,,---,0.00,VWS V14.01,2013-02-15 13:11:00,
2013-02-15 08:15:00,44.9,41.9,30.09,NE,56,1.0,3.0,89,0.00,,---,0.00,VWS V14.01,2013-02-15 13:15:00,
2013-02-15 08:16:00,44.8,41.5,30.09,NE,56,1.0,3.0,88,0.00,,---,0.00,VWS V14.01,2013-02-15 13:16:00,
2013-02-15 08:20:00,45.4,42.1,30.09,NE,56,3.0,4.0,88,0.00,,---,0.00,VWS V14.01,2013-02-15 13:20:00,
2013-02-15 08:21:00,45.3,42.3,30.09,NE,56,2.0,4.0,89,0.00,,---,0.00,VWS V14.01,2013-02-15 13:21:00,
2013-02-15 08:25:00,45.9,42.5,30.08,NE,56,3.0,3.0,88,0.00,,---,0.00,VWS V14.01,2013-02-15 13:25:00,
2013-02-15 08:26:00,45.8,42.5,30.08,NE,56,2.0,3.0,88,0.00,,---,0.00,VWS V14.01,2013-02-15 13:26:00,
2013-02-15 08:30:00,46.3,42.7,30.08,NE,56,1.0,5.0,87,0.00,,---,0.00,VWS V14.01,2013-02-15 13:30:00,
2013-02-15 08:31:00,46.3,42.7,30.08,NE,56,2.0,5.0,87,0.00,,---,0.00,VWS V14.01,2013-02-15 13:31:00,
2013-02-15 08:35:00,46.8,43.1,30.08,NE,56,2.0,4.0,87,0.00,,---,0.00,VWS V14.01,2013-02-15 13:35:00,
2013-02-15 08:36:00,46.8,43.1,30.08,NE,56,3.0,4.0,87,0.00,,---,0.00,VWS V14.01,2013-02-15 13:36:00,
2013-02-15 08:40:00,47.3,43.3,30.08,NE,56,4.0,5.0,86,0.00,,---,0.00,VWS V14.01,2013-02-15 13:40:00,
2013-02-15 08:41:00,47.3,43.3,30.08,NE,56,4.0,5.0,86,0.00,,---,0.00,VWS V14.01,2013-02-15 13:41:00,
2013-02-15 08:45:00,47.6,43.3,30.08,NE,56,5.0,5.0,85,0.00,,---,0.00,VWS V14.01,2013-02-15 13:45:00,
2013-02-15 08:46:00,47.6,43.3,30.08,NE,56,4.0,4.0,85,0.00,,---,0.00,VWS V14.01,2013-02-15 13:46:00,
2013-02-15 08:50:00,47.8,43.2,30.09,NE,56,4.0,4.0,84,0.00,,---,0.00,VWS V14.01,2013-02-15 13:50:00,
2013-02-15 08:51:00,47.8,43.2,30.09,NE,56,2.0,4.0,84,0.00,,---,0.00,VWS V14.01,2013-02-15 13:51:00,
2013-02-15 08:55:00,48.2,43.6,30.08,NE,56,4.0,5.0,84,0.00,,---,0.00,VWS V14.01,2013-02-15 13:55:00,
2013-02-15 08:56:00,48.1,43.5,30.08,NE,56,3.0,5.0,84,0.00,,---,0.00,VWS V14.01,2013-02-15 13:56:00,
2013-02-15 09:00:00,48.5,43.3,30.08,NE,56,5.0,6.0,82,0.00,,---,0.00,VWS V14.01,2013-02-15 14:00:00,
2013-02-15 09:01:00,48.4,43.2,30.08,NE,56,5.0,6.0,82,0.00,,---,0.00,VWS V14.01,2013-02-15 14:01:00,
2013-02-15 09:05:00,48.8,43.6,30.09,NE,56,2.0,4.0,82,0.00,,---,0.00,VWS V14.01,2013-02-15 14:05:00,
2013-02-15 09:06:00,48.7,43.5,30.09,NE,56,4.0,5.0,82,0.00,,---,0.00,VWS V14.01,2013-02-15 14:06:00,
2013-02-15 09:10:00,49.5,44.2,30.09,NE,56,2.0,4.0,82,0.00,,---,0.00,VWS V14.01,2013-02-15 14:10:00,
2013-02-15 09:11:00,49.4,44.1,30.09,NE,56,4.0,4.0,82,0.00,,---,0.00,VWS V14.01,2013-02-15 14:11:00,
2013-02-15 09:15:00,49.7,43.8,30.08,NE,56,3.0,4.0,80,0.00,,---,0.00,VWS V14.01,2013-02-15 14:15:00,
2013-02-15 09:16:00,49.7,43.8,30.08,NE,56,2.0,4.0,80,0.00,,---,0.00,VWS V14.01,2013-02-15 14:16:00,
2013-02-15 09:20:00,50.1,44.5,30.09,NE,56,2.0,4.0,81,0.00,,---,0.00,VWS V14.01,2013-02-15 14:20:00,
2013-02-15 09:21:00,50.0,44.4,30.09,NE,56,3.0,4.0,81,0.00,,---,0.00,VWS V14.01,2013-02-15 14:21:00,
2013-02-15 09:25:00,50.7,44.4,30.09,NE,56,4.0,5.0,79,0.00,,---,0.00,VWS V14.01,2013-02-15 14:25:00,
2013-02-15 09:26:00,50.7,44.4,30.09,NE,56,4.0,5.0,79,0.00,,---,0.00,VWS V14.01,2013-02-15 14:26:00,
2013-02-15 09:30:00,50.9,44.3,30.09,NE,56,5.0,5.0,78,0.00,,---,0.00,VWS V14.01,2013-02-15 14:30:00,
2013-02-15 09:31:00,50.9,44.3,30.09,NE,56,4.0,5.0,78,0.00,,---,0.00,VWS V14.01,2013-02-15 14:31:00,
2013-02-15 09:35:00,51.2,43.9,30.09,NE,55,2.0,7.0,76,0.00,,---,0.00,VWS V14.01,2013-02-15 14:35:00,
2013-02-15 09:36:00,51.2,44.2,30.09,NE,55,4.0,7.0,77,0.00,,---,0.00,VWS V14.01,2013-02-15 14:36:00,
2013-02-15 09:40:00,51.4,44.1,30.09,NE,51,3.0,6.0,76,0.00,,---,0.00,VWS V14.01,2013-02-15 14:40:00,
2013-02-15 09:41:00,51.4,44.1,30.09,NE,51,3.0,7.0,76,0.00,,---,0.00,VWS V14.01,2013-02-15 14:41:00,
2013-02-15 09:45:00,51.8,44.8,30.10,NE,49,1.0,4.0,77,0.00,,---,0.00,VWS V14.01,2013-02-15 14:45:00,
2013-02-15 09:46:00,51.7,44.7,30.10,NE,50,1.0,5.0,77,0.00,,---,0.00,VWS V14.01,2013-02-15 14:46:00,
2013-02-15 09:50:00,52.1,44.8,30.10,NE,49,3.0,6.0,76,0.00,,---,0.00,VWS V14.01,2013-02-15 14:50:00,
2013-02-15 09:51:00,52.0,44.7,30.10,NE,49,4.0,4.0,76,0.00,,---,0.00,VWS V14.01,2013-02-15 14:51:00,
2013-02-15 09:55:00,52.2,43.8,30.09,NE,50,3.0,6.0,73,0.00,,---,0.00,VWS V14.01,2013-02-15 14:55:00,
2013-02-15 09:56:00,52.2,43.8,30.09,NE,49,6.0,6.0,73,0.00,,---,0.00,VWS V14.01,2013-02-15 14:56:00,
2013-02-15 10:00:00,52.3,43.9,30.09,NE,50,3.0,3.0,73,0.00,,---,0.00,VWS V14.01,2013-02-15 15:00:00,
2013-02-15 10:01:00,52.2,43.8,30.09,NE,49,2.0,3.0,73,0.00,,---,0.00,VWS V14.01,2013-02-15 15:01:00,
2013-02-15 10:05:00,52.6,44.2,30.09,NE,48,5.0,5.0,73,0.00,,---,0.00,VWS V14.01,2013-02-15 15:05:00,
2013-02-15 10:06:00,52.6,44.2,30.09,NE,48,3.0,5.0,73,0.00,,---,0.00,VWS V14.01,2013-02-15 15:06:00,
2013-02-15 10:10:00,52.7,43.6,30.09,NE,48,3.0,4.0,71,0.00,,---,0.00,VWS V14.01,2013-02-15 15:10:00,
2013-02-15 10:11:00,52.7,43.2,30.09,NE,48,1.0,4.0,70,0.00,,---,0.00,VWS V14.01,2013-02-15 15:11:00,
2013-02-15 10:15:00,53.1,44.0,30.09,NE,48,0.0,6.0,71,0.00,,---,0.00,VWS V14.01,2013-02-15 15:15:00,
2013-02-15 10:16:00,53.1,44.0,30.09,NE,48,1.0,6.0,71,0.00,,---,0.00,VWS V14.01,2013-02-15 15:16:00,
2013-02-15 10:20:00,53.4,44.2,30.09,NE,48,3.0,4.0,71,0.00,,---,0.00,VWS V14.01,2013-02-15 15:20:00,
2013-02-15 10:21:00,53.4,44.2,30.09,NE,48,2.0,4.0,71,0.00,,---,0.00,VWS V14.01,2013-02-15 15:21:00,
2013-02-15 10:25:00,53.6,43.7,30.09,NE,48,1.0,6.0,69,0.00,,---,0.00,VWS V14.01,2013-02-15 15:25:00,
2013-02-15 10:26:00,53.6,43.7,30.09,NE,48,1.0,6.0,69,0.00,,---,0.00,VWS V14.01,2013-02-15 15:26:00,
2013-02-15 10:30:00,53.5,43.2,30.09,NE,48,2.0,6.0,68,0.00,,---,0.00,VWS V14.01,2013-02-15 15:30:00,
2013-02-15 10:31:00,53.6,43.3,30.09,NE,48,3.0,6.0,68,0.00,,---,0.00,VWS V14.01,2013-02-15 15:31:00,
2013-02-15 10:35:00,53.8,43.5,30.09,NE,48,3.0,3.0,68,0.00,,---,0.00,VWS V14.01,2013-02-15 15:35:00,
2013-02-15 10:36:00,53.8,43.5,30.09,NE,48,3.0,3.0,68,0.00,,---,0.00,VWS V14.01,2013-02-15 15:36:00,
2013-02-15 10:40:00,54.2,44.6,30.09,NE,48,0.0,5.0,70,0.00,,---,0.00,VWS V14.01,2013-02-15 15:40:00,
2013-02-15 10:41:00,54.2,43.5,30.09,NE,48,0.0,5.0,67,0.00,,---,0.00,VWS V14.01,2013-02-15 15:41:00,
2013-02-15 10:45:00,54.3,43.6,30.09,NE,48,0.0,4.0,67,0.00,,---,0.00,VWS V14.01,2013-02-15 15:45:00,
2013-02-15 10:47:00,54.3,43.6,30.09,NE,48,0.0,4.0,67,0.00,,---,0.00,VWS V14.01,2013-02-15 15:47:00,
2013-02-15 10:50:00,54.5,43.8,30.09,NE,48,1.0,4.0,67,0.00,,---,0.00,VWS V14.01,2013-02-15 15:50:00,
2013-02-15 10:52:00,54.5,43.8,30.09,NE,48,2.0,5.0,67,0.00,,---,0.00,VWS V14.01,2013-02-15 15:52:00,
2013-02-15 10:55:00,54.7,42.4,30.09,NE,48,0.0,0.0,63,0.00,,---,0.00,VWS V14.01,2013-02-15 15:55:00,
2013-02-15 10:57:00,54.7,42.4,30.09,NE,48,0.0,0.0,63,0.00,,---,0.00,VWS V14.01,2013-02-15 15:57:00,
2013-02-15 11:00:00,54.9,42.6,30.09,NE,48,1.0,6.0,63,0.00,,---,0.00,VWS V14.01,2013-02-15 16:00:00,
2013-02-15 11:02:00,54.9,42.6,30.09,NE,48,3.0,6.0,63,0.00,,---,0.00,VWS V14.01,2013-02-15 16:02:00,
2013-02-15 11:05:00,54.7,42.0,30.09,NE,48,0.0,2.0,62,0.00,,---,0.00,VWS V14.01,2013-02-15 16:05:00,
2013-02-15 11:07:00,54.7,42.0,30.09,NE,48,0.0,2.0,62,0.00,,---,0.00,VWS V14.01,2013-02-15 16:07:00,
2013-02-15 11:10:00,54.9,42.1,30.09,NE,51,4.0,7.0,62,0.00,,---,0.00,VWS V14.01,2013-02-15 16:10:00,
2013-02-15 11:12:00,54.9,42.1,30.09,NE,51,5.0,7.0,62,0.00,,---,0.00,VWS V14.01,2013-02-15 16:12:00,
2013-02-15 11:15:00,55.2,42.4,30.09,NE,51,0.0,2.0,62,0.00,,---,0.00,VWS V14.01,2013-02-15 16:15:00,
2013-02-15 11:17:00,55.2,42.4,30.09,NE,51,0.0,2.0,62,0.00,,---,0.00,VWS V14.01,2013-02-15 16:17:00,
2013-02-15 11:20:00,55.1,41.9,30.09,NE,52,3.0,6.0,61,0.00,,---,0.00,VWS V14.01,2013-02-15 16:20:00,
2013-02-15 11:22:00,55.1,41.9,30.09,NE,53,4.0,6.0,61,0.00,,---,0.00,VWS V14.01,2013-02-15 16:22:00,
2013-02-15 11:25:00,55.4,41.8,30.08,NE,53,0.0,0.0,60,0.00,,---,0.00,VWS V14.01,2013-02-15 16:25:00,
2013-02-15 11:27:00,55.3,41.7,30.08,NE,53,0.0,0.0,60,0.00,,---,0.00,VWS V14.01,2013-02-15 16:27:00,
2013-02-15 11:30:00,55.7,42.0,30.08,NE,55,5.0,5.0,60,0.00,,---,0.00,VWS V14.01,2013-02-15 16:30:00,
2013-02-15 11:32:00,55.7,42.0,30.08,NE,55,5.0,5.0,60,0.00,,---,0.00,VWS V14.01,2013-02-15 16:32:00,
2013-02-15 11:35:00,55.4,42.6,30.08,NE,55,3.0,6.0,62,0.00,,---,0.00,VWS V14.01,2013-02-15 16:35:00,
2013-02-15 11:37:00,55.4,42.6,30.08,NE,55,4.0,6.0,62,0.00,,---,0.00,VWS V14.01,2013-02-15 16:37:00,
2013-02-15 11:40:00,55.2,43.7,30.08,ESE,104,5.0,6.0,65,0.00,,---,0.00,VWS V14.01,2013-02-15 16:40:00,
2013-02-15 11:42:00,55.2,43.7,30.08,ESE,104,4.0,6.0,65,0.00,,---,0.00,VWS V14.01,2013-02-15 16:42:00,
2013-02-15 11:45:00,55.1,43.6,30.08,ESE,107,0.0,5.0,65,0.00,,---,0.00,VWS V14.01,2013-02-15 16:45:00,
2013-02-15 11:47:00,55.1,43.6,30.08,ESE,106,1.0,5.0,65,0.00,,---,0.00,VWS V14.01,2013-02-15 16:47:00,
2013-02-15 11:50:00,54.8,44.1,30.08,ESE,119,2.0,7.0,67,0.00,,---,0.00,VWS V14.01,2013-02-15 16:50:00,
2013-02-15 11:52:00,54.8,44.1,30.08,ESE,119,2.0,7.0,67,0.00,,---,0.00,VWS V14.01,2013-02-15 16:52:00,
2013-02-15 11:55:00,55.0,43.9,30.08,South,187,2.0,7.0,66,0.00,,---,0.00,VWS V14.01,2013-02-15 16:55:00,
2013-02-15 11:57:00,55.0,43.9,30.08,South,187,2.0,7.0,66,0.00,,---,0.00,VWS V14.01,2013-02-15 16:57:00,
2013-02-15 12:00:00,54.8,44.1,30.08,ESE,119,2.0,7.0,67,0.00,,---,0.00,VWS V14.01,2013-02-15 17:00:00,
2013-02-15 12:02:00,54.8,44.1,30.08,ESE,119,2.0,7.0,67,0.00,,---,0.00,VWS V14.01,2013-02-15 17:02:00,
2013-02-15 12:05:00,54.9,43.8,30.08,ESE,118,3.0,6.0,66,0.00,,---,0.00,VWS V14.01,2013-02-15 17:05:00,
2013-02-15 12:07:00,54.9,43.8,30.08,ESE,118,3.0,6.0,66,0.00,,---,0.00,VWS V14.01,2013-02-15 17:07:00,
2013-02-15 12:10:00,54.8,43.7,30.07,SE,124,0.0,5.0,66,0.00,,---,0.00,VWS V14.01,2013-02-15 17:10:00,
2013-02-15 12:12:00,54.8,43.7,30.07,SE,124,0.0,5.0,66,0.00,,---,0.00,VWS V14.01,2013-02-15 17:12:00,
2013-02-15 12:15:00,54.9,43.0,30.07,SE,128,2.0,5.0,64,0.00,,---,0.00,VWS V14.01,2013-02-15 17:15:00,
2013-02-15 12:17:00,54.9,43.0,30.07,SE,128,2.0,5.0,64,0.00,,---,0.00,VWS V14.01,2013-02-15 17:17:00,
2013-02-15 12:20:00,55.1,43.2,30.07,SE,138,0.0,9.0,64,0.00,,---,0.00,VWS V14.01,2013-02-15 17:20:00,
2013-02-15 12:22:00,55.1,43.2,30.07,SE,138,0.0,9.0,64,0.00,,---,0.00,VWS V14.01,2013-02-15 17:22:00,
2013-02-15 12:25:00,54.8,42.0,30.06,SSE,153,4.0,7.0,62,0.00,,---,0.00,VWS V14.01,2013-02-15 17:25:00,
2013-02-15 12:27:00,54.8,42.0,30.06,SSE,152,4.0,7.0,62,0.00,,---,0.00,VWS V14.01,2013-02-15 17:27:00,
2013-02-15 12:30:00,54.9,43.0,30.06,SE,125,5.0,8.0,64,0.00,,---,0.00,VWS V14.01,2013-02-15 17:30:00,
2013-02-15 12:32:00,54.9,42.6,30.06,ESE,123,4.0,8.0,63,0.00,,---,0.00,VWS V14.01,2013-02-15 17:32:00,
2013-02-15 12:35:00,55.2,43.7,30.06,ESE,119,5.0,7.0,65,0.00,,---,0.00,VWS V14.01,2013-02-15 17:35:00,
2013-02-15 12:37:00,55.2,43.7,30.06,ESE,119,4.0,7.0,65,0.00,,---,0.00,VWS V14.01,2013-02-15 17:37:00,
2013-02-15 12:40:00,55.3,43.3,30.06,SE,128,0.0,5.0,64,0.00,,---,0.00,VWS V14.01,2013-02-15 17:40:00,
2013-02-15 12:42:00,55.3,43.3,30.06,SE,128,0.0,5.0,64,0.00,,---,0.00,VWS V14.01,2013-02-15 17:42:00,
2013-02-15 12:45:00,55.0,42.7,30.06,SE,128,4.0,6.0,63,0.00,,---,0.00,VWS V14.01,2013-02-15 17:45:00,
2013-02-15 12:47:00,54.9,42.6,30.06,SE,127,3.0,6.0,63,0.00,,---,0.00,VWS V14.01,2013-02-15 17:47:00,
2013-02-15 12:50:00,54.8,42.9,30.06,SE,127,0.0,6.0,64,0.00,,---,0.00,VWS V14.01,2013-02-15 17:50:00,
2013-02-15 12:52:00,54.8,42.9,30.06,SE,127,0.0,6.0,64,0.00,,---,0.00,VWS V14.01,2013-02-15 17:52:00,
2013-02-15 12:55:00,55.0,42.7,30.05,SE,126,1.0,4.0,63,0.00,,---,0.00,VWS V14.01,2013-02-15 17:55:00,
2013-02-15 12:57:00,55.0,42.7,30.05,SE,127,1.0,4.0,63,0.00,,---,0.00,VWS V14.01,2013-02-15 17:57:00,
2013-02-15 13:00:00,54.8,39.9,30.05,SE,128,3.0,7.0,57,0.00,,---,0.00,VWS V14.01,2013-02-15 18:00:00,
2013-02-15 13:02:00,54.8,40.8,30.05,SE,128,0.0,7.0,59,0.00,,---,0.00,VWS V14.01,2013-02-15 18:02:00,
2013-02-15 13:05:00,55.1,41.9,30.05,SE,132,2.0,3.0,61,0.00,,---,0.00,VWS V14.01,2013-02-15 18:05:00,
2013-02-15 13:07:00,55.1,41.9,30.05,SE,132,3.0,3.0,61,0.00,,---,0.00,VWS V14.01,2013-02-15 18:07:00,
2013-02-15 13:10:00,55.1,41.0,30.05,SE,127,0.0,7.0,59,0.00,,---,0.00,VWS V14.01,2013-02-15 18:10:00,
2013-02-15 13:12:00,55.1,41.5,30.05,SE,126,1.0,7.0,60,0.00,,---,0.00,VWS V14.01,2013-02-15 18:12:00,
2013-02-15 13:15:00,54.9,41.7,30.05,SE,127,0.0,3.0,61,0.00,,---,0.00,VWS V14.01,2013-02-15 18:15:00,
2013-02-15 13:17:00,54.9,41.7,30.05,SE,127,0.0,3.0,61,0.00,,---,0.00,VWS V14.01,2013-02-15 18:17:00,
2013-02-15 13:20:00,54.8,41.6,30.05,SE,128,3.0,3.0,61,0.00,,---,0.00,VWS V14.01,2013-02-15 18:20:00,
2013-02-15 13:22:00,54.8,41.6,30.05,SE,129,1.0,3.0,61,0.00,,---,0.00,VWS V14.01,2013-02-15 18:22:00,
2013-02-15 13:25:00,54.8,39.9,30.05,SE,126,3.0,6.0,57,0.00,,---,0.00,VWS V14.01,2013-02-15 18:25:00,
2013-02-15 13:27:00,54.8,39.9,30.05,SE,126,1.0,6.0,57,0.00,,---,0.00,VWS V14.01,2013-02-15 18:27:00,
2013-02-15 13:30:00,54.8,41.2,30.04,ESE,113,4.0,6.0,60,0.00,,---,0.00,VWS V14.01,2013-02-15 18:30:00,
2013-02-15 13:32:00,54.8,41.2,30.04,ESE,113,2.0,6.0,60,0.00,,---,0.00,VWS V14.01,2013-02-15 18:32:00,
2013-02-15 13:35:00,54.9,40.0,30.04,ESE,114,2.0,6.0,57,0.00,,---,0.00,VWS V14.01,2013-02-15 18:35:00,
2013-02-15 13:37:00,54.9,40.0,30.04,ESE,114,0.0,5.0,57,0.00,,---,0.00,VWS V14.01,2013-02-15 18:37:00,
2013-02-15 13:40:00,54.9,39.0,30.04,ESE,115,0.0,6.0,55,0.00,,---,0.00,VWS V14.01,2013-02-15 18:40:00,
2013-02-15 13:42:00,54.9,39.0,30.04,ESE,115,2.0,6.0,55,0.00,,---,0.00,VWS V14.01,2013-02-15 18:42:00,
2013-02-15 13:45:00,55.2,39.3,30.03,ESE,115,5.0,5.0,55,0.00,,---,0.00,VWS V14.01,2013-02-15 18:45:00,
2013-02-15 13:47:00,55.2,38.4,30.03,ESE,116,1.0,5.0,53,0.00,,---,0.00,VWS V14.01,2013-02-15 18:47:00,
2013-02-15 13:50:00,55.0,40.1,30.03,ESE,114,7.0,7.0,57,0.00,,---,0.00,VWS V14.01,2013-02-15 18:50:00,
2013-02-15 13:52:00,55.0,39.6,30.03,ESE,113,3.0,7.0,56,0.00,,---,0.00,VWS V14.01,2013-02-15 18:52:00,
2013-02-15 13:55:00,55.2,42.4,30.03,ESE,108,0.0,0.0,62,0.00,,---,0.00,VWS V14.01,2013-02-15 18:55:00,
2013-02-15 13:57:00,55.4,42.6,30.03,ESE,108,4.0,4.0,62,0.00,,---,0.00,VWS V14.01,2013-02-15 18:57:00,
2013-02-15 14:00:00,55.4,41.3,30.03,ESE,111,0.0,5.0,59,0.00,,---,0.00,VWS V14.01,2013-02-15 19:00:00,
2013-02-15 14:02:00,55.4,41.3,30.03,ESE,111,4.0,5.0,59,0.00,,---,0.00,VWS V14.01,2013-02-15 19:02:00,
2013-02-15 14:05:00,55.1,41.5,30.03,ESE,113,3.0,6.0,60,0.00,,---,0.00,VWS V14.01,2013-02-15 19:05:00,
2013-02-15 14:07:00,55.1,41.5,30.02,ESE,111,5.0,6.0,60,0.00,,---,0.00,VWS V14.01,2013-02-15 19:07:00,
2013-02-15 14:10:00,55.0,42.7,30.02,ESE,107,0.0,8.0,63,0.00,,---,0.00,VWS V14.01,2013-02-15 19:10:00,
2013-02-15 14:12:00,55.1,42.8,30.02,ESE,107,0.0,6.0,63,0.00,,---,0.00,VWS V14.01,2013-02-15 19:12:00,
2013-02-15 14:15:00,55.7,43.7,30.02,ESE,109,3.0,5.0,64,0.00,,---,0.00,VWS V14.01,2013-02-15 19:15:00,
2013-02-15 14:17:00,55.7,42.9,30.02,ESE,109,5.0,5.0,62,0.00,,---,0.00,VWS V14.01,2013-02-15 19:17:00,
2013-02-15 14:20:00,55.8,42.1,30.02,ESE,111,3.0,7.0,60,0.00,,---,0.00,VWS V14.01,2013-02-15 19:20:00,
2013-02-15 14:22:00,55.8,42.6,30.02,ESE,111,2.0,7.0,61,0.00,,---,0.00,VWS V14.01,2013-02-15 19:22:00,
2013-02-15 14:25:00,55.7,42.9,30.02,ESE,113,0.0,4.0,62,0.00,,---,0.00,VWS V14.01,2013-02-15 19:25:00,
2013-02-15 14:27:00,55.7,42.9,30.02,ESE,113,0.0,4.0,62,0.00,,---,0.00,VWS V14.01,2013-02-15 19:27:00,
2013-02-15 14:30:00,55.9,43.1,30.02,ESE,115,0.0,4.0,62,0.00,,---,0.00,VWS V14.01,2013-02-15 19:30:00,
2013-02-15 14:32:00,55.9,43.1,30.02,ESE,114,0.0,4.0,62,0.00,,---,0.00,VWS V14.01,2013-02-15 19:32:00,
2013-02-15 14:35:00,55.9,43.5,30.01,ESE,115,0.0,5.0,63,0.00,,---,0.00,VWS V14.01,2013-02-15 19:35:00,
2013-02-15 14:37:00,55.9,43.5,30.01,ESE,115,0.0,5.0,63,0.00,,---,0.00,VWS V14.01,2013-02-15 19:37:00,
2013-02-15 14:40:00,55.8,43.0,30.01,ESE,115,5.0,5.0,62,0.00,,---,0.00,VWS V14.01,2013-02-15 19:40:00,
2013-02-15 14:42:00,55.8,43.0,30.01,ESE,115,4.0,5.0,62,0.00,,---,0.00,VWS V14.01,2013-02-15 19:42:00,
2013-02-15 14:45:00,56.3,43.5,30.01,ESE,118,2.0,5.0,62,0.00,,---,0.00,VWS V14.01,2013-02-15 19:45:00,
2013-02-15 14:47:00,56.3,43.5,30.01,ESE,118,0.0,5.0,62,0.00,,---,0.00,VWS V14.01,2013-02-15 19:47:00,
2013-02-15 14:50:00,56.4,43.6,30.01,ESE,121,3.0,7.0,62,0.00,,---,0.00,VWS V14.01,2013-02-15 19:50:00,
2013-02-15 14:52:00,56.4,43.6,30.00,ESE,122,1.0,3.0,62,0.00,,---,0.00,VWS V14.01,2013-02-15 19:52:00,
2013-02-15 14:55:00,56.2,42.9,30.00,SE,128,6.0,10.0,61,0.00,,---,0.00,VWS V14.01,2013-02-15 19:55:00,
2013-02-15 14:57:00,56.0,42.3,30.00,SE,128,3.0,10.0,60,0.00,,---,0.00,VWS V14.01,2013-02-15 19:57:00,
2013-02-15 15:00:00,56.0,43.2,30.00,SE,136,0.0,3.0,62,0.00,,---,0.00,VWS V14.01,2013-02-15 20:00:00,
2013-02-15 15:02:00,56.0,43.6,30.00,SE,136,0.0,3.0,63,0.00,,---,0.00,VWS V14.01,2013-02-15 20:02:00,
2013-02-15 15:05:00,56.4,43.1,30.00,South,180,4.0,4.0,61,0.00,,---,0.00,VWS V14.01,2013-02-15 20:05:00,
2013-02-15 15:07:00,56.3,43.0,30.00,ESE,118,3.0,5.0,61,0.00,,---,0.00,VWS V14.01,2013-02-15 20:07:00,
2013-02-15 15:10:00,56.7,43.4,29.99,SSW,201,1.0,7.0,61,0.00,,---,0.00,VWS V14.01,2013-02-15 20:10:00,
2013-02-15 15:12:00,56.8,43.5,29.99,SSW,202,0.0,7.0,61,0.00,,---,0.00,VWS V14.01,2013-02-15 20:12:00,
2013-02-15 15:15:00,56.9,43.2,29.99,SSW,205,3.0,10.0,60,0.00,,---,0.00,VWS V14.01,2013-02-15 20:15:00,
2013-02-15 15:17:00,56.8,43.1,29.99,SSW,205,2.0,10.0,60,0.00,,---,0.00,VWS V14.01,2013-02-15 20:17:00,
2013-02-15 15:20:00,56.2,42.9,29.99,South,169,3.0,4.0,61,0.00,,---,0.00,VWS V14.01,2013-02-15 20:20:00,
2013-02-15 15:22:00,56.1,42.8,29.99,South,169,3.0,7.0,61,0.00,,---,0.00,VWS V14.01,2013-02-15 20:22:00,
2013-02-15 15:25:00,55.7,42.9,29.99,SSE,168,0.0,5.0,62,0.00,,---,0.00,VWS V14.01,2013-02-15 20:25:00,
2013-02-15 15:27:00,55.7,43.3,29.99,SSE,168,0.0,4.0,63,0.00,,---,0.00,VWS V14.01,2013-02-15 20:27:00,
2013-02-15 15:30:00,56.0,43.6,29.99,South,184,7.0,7.0,63,0.00,,---,0.00,VWS V14.01,2013-02-15 20:30:00,
2013-02-15 15:32:00,56.1,42.4,29.99,SSW,208,3.0,9.0,60,0.00,,---,0.00,VWS V14.01,2013-02-15 20:32:00,
2013-02-15 15:35:00,56.3,43.0,29.99,SSE,163,3.0,4.0,61,0.00,,---,0.00,VWS V14.01,2013-02-15 20:35:00,
2013-02-15 15:37:00,56.5,43.2,29.99,SSE,167,5.0,5.0,61,0.00,,---,0.00,VWS V14.01,2013-02-15 20:37:00,
2013-02-15 15:40:00,56.7,43.0,29.99,South,169,3.0,5.0,60,0.00,,---,0.00,VWS V14.01,2013-02-15 20:40:00,
2013-02-15 15:42:00,56.6,42.5,30.00,South,169,1.0,5.0,59,0.00,,---,0.00,VWS V14.01,2013-02-15 20:42:00,
2013-02-15 15:45:00,55.8,42.6,29.99,East,96,2.0,7.0,61,0.00,,---,0.00,VWS V14.01,2013-02-15 20:45:00,
2013-02-15 15:47:00,55.7,42.9,29.99,East,95,2.0,7.0,62,0.00,,---,0.00,VWS V14.01,2013-02-15 20:47:00,
2013-02-15 15:50:00,56.0,43.6,29.99,ESE,107,3.0,3.0,63,0.00,,---,0.00,VWS V14.01,2013-02-15 20:50:00,
2013-02-15 15:52:00,56.1,43.3,30.00,ESE,108,0.0,3.0,62,0.00,,---,0.00,VWS V14.01,2013-02-15 20:52:00,
2013-02-15 15:55:00,56.4,44.0,29.99,ESE,109,3.0,5.0,63,0.00,,---,0.00,VWS V14.01,2013-02-15 20:55:00,
2013-02-15 15:58:00,56.3,43.9,29.99,ESE,109,0.0,5.0,63,0.00,,---,0.00,VWS V14.01,2013-02-15 20:58:00,
2013-02-15 16:00:00,56.4,44.0,29.99,ESE,109,0.0,3.0,63,0.00,,---,0.00,VWS V14.01,2013-02-15 21:00:00,
2013-02-15 16:03:00,56.4,44.0,29.99,ESE,109,0.0,3.0,63,0.00,,---,0.00,VWS V14.01,2013-02-15 21:03:00,
2013-02-15 16:05:00,56.6,44.2,29.99,ESE,111,1.0,5.0,63,0.00,,---,0.00,VWS V14.01,2013-02-15 21:05:00,
2013-02-15 16:08:00,56.7,43.8,29.99,ESE,111,1.0,5.0,62,0.00,,---,0.00,VWS V14.01,2013-02-15 21:08:00,
2013-02-15 16:10:00,56.2,43.8,29.99,ESE,112,4.0,5.0,63,0.00,,---,0.00,VWS V14.01,2013-02-15 21:10:00,
2013-02-15 16:13:00,56.2,43.4,29.99,ESE,112,1.0,4.0,62,0.00,,---,0.00,VWS V14.01,2013-02-15 21:13:00,
2013-02-15 16:15:00,56.4,44.0,29.99,ESE,112,0.0,2.0,63,0.00,,---,0.00,VWS V14.01,2013-02-15 21:15:00,
2013-02-15 16:18:00,56.5,44.1,29.99,ESE,114,4.0,4.0,63,0.00,,---,0.00,VWS V14.01,2013-02-15 21:18:00,
2013-02-15 16:20:00,56.5,44.1,29.99,ESE,115,3.0,3.0,63,0.00,,---,0.00,VWS V14.01,2013-02-15 21:20:00,
2013-02-15 16:23:00,56.4,44.0,29.99,ESE,115,2.0,4.0,63,0.00,,---,0.00,VWS V14.01,2013-02-15 21:23:00,
2013-02-15 16:25:00,56.2,43.4,29.99,ESE,117,3.0,3.0,62,0.00,,---,0.00,VWS V14.01,2013-02-15 21:25:00,
2013-02-15 16:28:00,56.2,44.2,29.99,ESE,117,0.0,3.0,64,0.00,,---,0.00,VWS V14.01,2013-02-15 21:28:00,
2013-02-15 16:30:00,56.2,43.8,29.99,ESE,117,3.0,3.0,63,0.00,,---,0.00,VWS V14.01,2013-02-15 21:30:00,
2013-02-15 16:33:00,56.1,43.7,29.99,ESE,117,2.0,3.0,63,0.00,,---,0.00,VWS V14.01,2013-02-15 21:33:00,
2013-02-15 16:35:00,55.7,43.7,29.99,ESE,117,3.0,6.0,64,0.00,,---,0.00,VWS V14.01,2013-02-15 21:35:00,
2013-02-15 16:38:00,55.6,43.6,29.99,ESE,117,4.0,5.0,64,0.00,,---,0.00,VWS V14.01,2013-02-15 21:38:00,
2013-02-15 16:40:00,55.4,43.4,29.99,ESE,121,0.0,4.0,64,0.00,,---,0.00,VWS V14.01,2013-02-15 21:40:00,
2013-02-15 16:43:00,55.4,43.8,29.99,ESE,121,4.0,4.0,65,0.00,,---,0.00,VWS V14.01,2013-02-15 21:43:00,
2013-02-15 16:45:00,55.3,43.8,29.99,ESE,121,0.0,0.0,65,0.00,,---,0.00,VWS V14.01,2013-02-15 21:45:00,
2013-02-15 16:48:00,55.3,43.8,29.99,ESE,121,0.0,0.0,65,0.00,,---,0.00,VWS V14.01,2013-02-15 21:48:00,
2013-02-15 16:50:00,55.3,43.8,29.98,ESE,121,0.0,4.0,65,0.00,,---,0.00,VWS V14.01,2013-02-15 21:50:00,
2013-02-15 16:53:00,55.2,43.7,29.98,ESE,121,4.0,4.0,65,0.00,,---,0.00,VWS V14.01,2013-02-15 21:53:00,
2013-02-15 16:55:00,54.8,43.7,29.98,ESE,121,0.0,1.0,66,0.00,,---,0.00,VWS V14.01,2013-02-15 21:55:00,
2013-02-15 16:58:00,54.8,44.1,29.98,ESE,121,3.0,6.0,67,0.00,,---,0.00,VWS V14.01,2013-02-15 21:58:00,
2013-02-15 17:00:00,55.1,44.0,29.98,ESE,121,1.0,3.0,66,0.00,,---,0.00,VWS V14.01,2013-02-15 22:00:00,
2013-02-15 17:03:00,55.0,44.3,29.98,ESE,121,1.0,3.0,67,0.00,,---,0.00,VWS V14.01,2013-02-15 22:03:00,
2013-02-15 17:05:00,55.1,44.3,29.98,ESE,121,0.0,0.0,67,0.00,,---,0.00,VWS V14.01,2013-02-15 22:05:00,
2013-02-15 17:08:00,55.1,44.0,29.98,ESE,121,0.0,0.0,66,0.00,,---,0.00,VWS V14.01,2013-02-15 22:08:00,
2013-02-15 17:10:00,55.1,44.0,29.98,ESE,121,0.0,0.0,66,0.00,,---,0.00,VWS V14.01,2013-02-15 22:10:00,
2013-02-15 17:13:00,55.1,44.3,29.98,ESE,121,0.0,0.0,67,0.00,,---,0.00,VWS V14.01,2013-02-15 22:13:00,
2013-02-15 17:15:00,55.0,44.3,29.98,ESE,121,1.0,2.0,67,0.00,,---,0.00,VWS V14.01,2013-02-15 22:15:00,
2013-02-15 17:18:00,54.9,44.2,29.98,ESE,121,2.0,2.0,67,0.00,,---,0.00,VWS V14.01,2013-02-15 22:18:00,
2013-02-15 17:20:00,54.6,44.3,29.98,ESE,122,0.0,2.0,68,0.00,,---,0.00,VWS V14.01,2013-02-15 22:20:00,
2013-02-15 17:23:00,54.5,44.2,29.98,ESE,122,2.0,2.0,68,0.00,,---,0.00,VWS V14.01,2013-02-15 22:23:00,
2013-02-15 17:25:00,54.2,43.9,29.98,ESE,122,0.0,2.0,68,0.00,,---,0.00,VWS V14.01,2013-02-15 22:25:00,
2013-02-15 17:28:00,54.1,44.2,29.98,ESE,122,0.0,0.0,69,0.00,,---,0.00,VWS V14.01,2013-02-15 22:28:00,
2013-02-15 17:30:00,54.0,44.1,29.98,ESE,122,0.0,0.0,69,0.00,,---,0.00,VWS V14.01,2013-02-15 22:30:00,
2013-02-15 17:33:00,54.0,44.1,29.98,ESE,122,0.0,0.0,69,0.00,,---,0.00,VWS V14.01,2013-02-15 22:33:00,
2013-02-15 17:35:00,54.1,44.2,29.98,ESE,122,0.0,0.0,69,0.00,,---,0.00,VWS V14.01,2013-02-15 22:35:00,
2013-02-15 17:38:00,54.1,44.2,29.98,ESE,122,0.0,0.0,69,0.00,,---,0.00,VWS V14.01,2013-02-15 22:38:00,
2013-02-15 17:40:00,54.2,44.3,29.98,ESE,122,0.0,0.0,69,0.00,,---,0.00,VWS V14.01,2013-02-15 22:40:00,
2013-02-15 17:43:00,54.3,44.4,29.98,ESE,122,0.0,0.0,69,0.00,,---,0.00,VWS V14.01,2013-02-15 22:43:00,
2013-02-15 17:45:00,54.4,44.5,29.98,ESE,122,0.0,0.0,69,0.00,,---,0.00,VWS V14.01,2013-02-15 22:45:00,
2013-02-15 17:48:00,54.3,44.4,29.98,ESE,122,0.0,0.0,69,0.00,,---,0.00,VWS V14.01,2013-02-15 22:48:00,
2013-02-15 17:50:00,54.2,44.6,29.98,ESE,122,0.0,0.0,70,0.00,,---,0.00,VWS V14.01,2013-02-15 22:50:00,
2013-02-15 17:53:00,54.1,44.2,29.98,ESE,122,0.0,0.0,69,0.00,,---,0.00,VWS V14.01,2013-02-15 22:53:00,
2013-02-15 17:55:00,53.7,44.5,29.98,ESE,122,0.0,0.0,71,0.00,,---,0.00,VWS V14.01,2013-02-15 22:55:00,
2013-02-15 17:58:00,53.6,44.4,29.98,ESE,122,0.0,0.0,71,0.00,,---,0.00,VWS V14.01,2013-02-15 22:58:00,
2013-02-15 18:00:00,53.0,44.2,29.98,ESE,122,0.0,0.0,72,0.00,,---,0.00,VWS V14.01,2013-02-15 23:00:00,
2013-02-15 18:03:00,52.8,44.0,29.98,ESE,122,0.0,0.0,72,0.00,,---,0.00,VWS V14.01,2013-02-15 23:03:00,
2013-02-15 18:05:00,52.0,44.0,29.98,ESE,122,0.0,0.0,74,0.00,,---,0.00,VWS V14.01,2013-02-15 23:05:00,
2013-02-15 18:08:00,51.8,43.8,29.98,ESE,122,0.0,0.0,74,0.00,,---,0.00,VWS V14.01,2013-02-15 23:08:00,
2013-02-15 18:10:00,51.5,43.8,29.98,ESE,122,0.0,0.0,75,0.00,,---,0.00,VWS V14.01,2013-02-15 23:10:00,
2013-02-15 18:13:00,51.4,43.8,29.98,ESE,122,0.0,0.0,75,0.00,,---,0.00,VWS V14.01,2013-02-15 23:13:00,
2013-02-15 18:15:00,51.1,44.2,29.98,ESE,122,0.0,0.0,77,0.00,,---,0.00,VWS V14.01,2013-02-15 23:15:00,
2013-02-15 18:18:00,50.9,44.0,29.98,ESE,122,0.0,0.0,77,0.00,,---,0.00,VWS V14.01,2013-02-15 23:18:00,
2013-02-15 18:20:00,50.5,43.9,29.98,ESE,122,0.0,0.0,78,0.00,,---,0.00,VWS V14.01,2013-02-15 23:20:00,
2013-02-15 18:23:00,50.3,43.7,29.98,ESE,122,0.0,0.0,78,0.00,,---,0.00,VWS V14.01,2013-02-15 23:23:00,
2013-02-15 18:25:00,49.9,43.7,29.98,ESE,122,0.0,0.0,79,0.00,,---,0.00,VWS V14.01,2013-02-15 23:25:00,
2013-02-15 18:28:00,49.8,43.6,29.98,ESE,122,0.0,0.0,79,0.00,,---,0.00,VWS V14.01,2013-02-15 23:28:00,
2013-02-15 18:30:00,49.5,43.9,29.98,ESE,122,0.0,0.0,81,0.00,,---,0.00,VWS V14.01,2013-02-15 23:30:00,
2013-02-15 18:33:00,49.5,43.9,29.98,ESE,122,0.0,0.0,81,0.00,,---,0.00,VWS V14.01,2013-02-15 23:33:00,
2013-02-15 18:35:00,49.1,43.5,29.99,ESE,122,0.0,0.0,81,0.00,,---,0.00,VWS V14.01,2013-02-15 23:35:00,
2013-02-15 18:38:00,49.0,43.4,29.99,ESE,122,0.0,0.0,81,0.00,,---,0.00,VWS V14.01,2013-02-15 23:38:00,
2013-02-15 18:40:00,48.8,43.6,29.99,ESE,122,0.0,0.0,82,0.00,,---,0.00,VWS V14.01,2013-02-15 23:40:00,
2013-02-15 18:43:00,48.8,43.6,29.99,ESE,122,0.0,0.0,82,0.00,,---,0.00,VWS V14.01,2013-02-15 23:43:00,
2013-02-15 18:45:00,48.6,43.7,29.99,ESE,122,0.0,0.0,83,0.00,,---,0.00,VWS V14.01,2013-02-15 23:45:00,
2013-02-15 18:48:00,48.6,43.7,29.99,ESE,122,0.0,0.0,83,0.00,,---,0.00,VWS V14.01,2013-02-15 23:48:00,
2013-02-15 18:50:00,48.4,43.8,29.99,ESE,122,0.0,0.0,84,0.00,,---,0.00,VWS V14.01,2013-02-15 23:50:00,
2013-02-15 18:53:00,48.3,43.7,29.98,ESE,122,0.0,0.0,84,0.00,,---,0.00,VWS V14.01,2013-02-15 23:53:00,
2013-02-15 18:55:00,48.1,43.5,29.99,ESE,122,0.0,0.0,84,0.00,,---,0.00,VWS V14.01,2013-02-15 23:55:00,
2013-02-15 18:58:00,48.1,43.5,29.99,ESE,122,0.0,0.0,84,0.00,,---,0.00,VWS V14.01,2013-02-15 23:58:00,
2013-02-15 19:00:00,47.9,43.3,29.99,ESE,122,0.0,0.0,84,0.00,,---,0.00,VWS V14.01,2013-02-16 00:00:00,
2013-02-15 19:03:00,47.8,43.2,29.99,ESE,122,0.0,0.0,84,0.00,,---,0.00,VWS V14.01,2013-02-16 00:03:00,
2013-02-15 19:05:00,47.7,43.4,29.99,ESE,122,0.0,0.0,85,0.00,,---,0.00,VWS V14.01,2013-02-16 00:05:00,
2013-02-15 19:08:00,47.7,43.4,29.99,ESE,122,0.0,0.0,85,0.00,,---,0.00,VWS V14.01,2013-02-16 00:08:00,
2013-02-15 19:10:00,47.5,43.2,29.99,ESE,122,0.0,0.0,85,0.00,,---,0.00,VWS V14.01,2013-02-16 00:10:00,
2013-02-15 19:13:00,47.5,43.5,29.99,ESE,122,0.0,0.0,86,0.00,,---,0.00,VWS V14.01,2013-02-16 00:13:00,
2013-02-15 19:15:00,47.4,43.4,29.99,ESE,122,0.0,0.0,86,0.00,,---,0.00,VWS V14.01,2013-02-16 00:15:00,
2013-02-15 19:18:00,47.4,43.4,29.99,ESE,122,0.0,0.0,86,0.00,,---,0.00,VWS V14.01,2013-02-16 00:18:00,
2013-02-15 19:20:00,47.3,43.3,29.99,ESE,122,0.0,0.0,86,0.00,,---,0.00,VWS V14.01,2013-02-16 00:20:00,
2013-02-15 19:23:00,47.3,43.3,29.99,ESE,122,0.0,0.0,86,0.00,,---,0.00,VWS V14.01,2013-02-16 00:23:00,
2013-02-15 19:25:00,47.2,43.2,29.99,ESE,122,0.0,0.0,86,0.00,,---,0.00,VWS V14.01,2013-02-16 00:25:00,
2013-02-15 19:28:00,47.2,43.5,29.99,ESE,122,0.0,0.0,87,0.00,,---,0.00,VWS V14.01,2013-02-16 00:28:00,
2013-02-15 19:30:00,47.2,43.5,29.99,ESE,122,0.0,0.0,87,0.00,,---,0.00,VWS V14.01,2013-02-16 00:30:00,
2013-02-15 19:33:00,47.2,43.5,29.99,ESE,122,0.0,0.0,87,0.00,,---,0.00,VWS V14.01,2013-02-16 00:33:00,
2013-02-15 19:35:00,47.1,43.4,29.99,ESE,122,0.0,0.0,87,0.00,,---,0.00,VWS V14.01,2013-02-16 00:35:00,
2013-02-15 19:38:00,47.0,43.3,29.99,ESE,122,0.0,0.0,87,0.00,,---,0.00,VWS V14.01,2013-02-16 00:38:00,
2013-02-15 19:40:00,47.0,43.3,29.98,ESE,122,0.0,0.0,87,0.00,,---,0.00,VWS V14.01,2013-02-16 00:40:00,
2013-02-15 19:43:00,47.0,43.3,29.98,ESE,122,0.0,0.0,87,0.00,,---,0.00,VWS V14.01,2013-02-16 00:43:00,
2013-02-15 19:45:00,46.9,43.2,29.98,ESE,122,0.0,0.0,87,0.00,,---,0.00,VWS V14.01,2013-02-16 00:45:00,
2013-02-15 19:48:00,46.8,43.1,29.98,ESE,122,0.0,0.0,87,0.00,,---,0.00,VWS V14.01,2013-02-16 00:48:00,
2013-02-15 19:50:00,46.8,43.4,29.98,ESE,122,0.0,0.0,88,0.00,,---,0.00,VWS V14.01,2013-02-16 00:50:00,
2013-02-15 19:53:00,46.8,43.4,29.98,ESE,122,0.0,0.0,88,0.00,,---,0.00,VWS V14.01,2013-02-16 00:53:00,
2013-02-15 19:55:00,46.7,43.3,29.98,ESE,122,0.0,0.0,88,0.00,,---,0.00,VWS V14.01,2013-02-16 00:55:00,
2013-02-15 19:58:00,46.7,43.3,29.98,ESE,122,0.0,0.0,88,0.00,,---,0.00,VWS V14.01,2013-02-16 00:58:00,
2013-02-15 20:00:00,46.7,43.3,29.98,ESE,122,0.0,0.0,88,0.00,,---,0.00,VWS V14.01,2013-02-16 01:00:00,
2013-02-15 20:03:00,46.7,43.3,29.98,ESE,122,0.0,0.0,88,0.00,,---,0.00,VWS V14.01,2013-02-16 01:03:00,
2013-02-15 20:05:00,46.7,43.3,29.98,ESE,122,0.0,0.0,88,0.00,,---,0.00,VWS V14.01,2013-02-16 01:05:00,
2013-02-15 20:08:00,46.6,43.2,29.98,ESE,122,0.0,0.0,88,0.00,,---,0.00,VWS V14.01,2013-02-16 01:08:00,
2013-02-15 20:10:00,46.6,43.2,29.98,ESE,122,0.0,0.0,88,0.00,,---,0.00,VWS V14.01,2013-02-16 01:10:00,
2013-02-15 20:13:00,46.5,43.1,29.98,ESE,122,0.0,0.0,88,0.00,,---,0.00,VWS V14.01,2013-02-16 01:13:00,
2013-02-15 20:15:00,45.4,42.6,29.98,ESE,122,0.0,0.0,90,0.00,,---,0.00,VWS V14.01,2013-02-16 01:15:00,
2013-02-15 20:18:00,46.4,43.0,29.98,ESE,122,0.0,0.0,88,0.00,,---,0.00,VWS V14.01,2013-02-16 01:18:00,
2013-02-15 20:20:00,46.3,43.2,29.98,ESE,122,0.0,0.0,89,0.00,,---,0.00,VWS V14.01,2013-02-16 01:20:00,
2013-02-15 20:23:00,46.3,43.2,29.98,ESE,122,0.0,0.0,89,0.00,,---,0.00,VWS V14.01,2013-02-16 01:23:00,
2013-02-15 20:25:00,46.2,43.1,29.98,ESE,122,0.0,0.0,89,0.00,,---,0.00,VWS V14.01,2013-02-16 01:25:00,
2013-02-15 20:28:00,46.2,43.1,29.98,ESE,122,0.0,0.0,89,0.00,,---,0.00,VWS V14.01,2013-02-16 01:28:00,
2013-02-15 20:30:00,46.1,43.0,29.98,ESE,122,0.0,0.0,89,0.00,,---,0.00,VWS V14.01,2013-02-16 01:30:00,
2013-02-15 20:33:00,46.1,43.0,29.98,ESE,122,0.0,0.0,89,0.00,,---,0.00,VWS V14.01,2013-02-16 01:33:00,
2013-02-15 20:35:00,46.0,43.0,29.98,ESE,122,0.0,0.0,89,0.00,,---,0.00,VWS V14.01,2013-02-16 01:35:00,
2013-02-15 20:38:00,46.0,43.0,29.98,ESE,122,0.0,0.0,89,0.00,,---,0.00,VWS V14.01,2013-02-16 01:38:00,
2013-02-15 20:40:00,45.9,42.8,29.99,ESE,122,0.0,0.0,89,0.00,,---,0.00,VWS V14.01,2013-02-16 01:40:00,
2013-02-15 20:43:00,45.9,42.8,29.98,ESE,122,0.0,0.0,89,0.00,,---,0.00,VWS V14.01,2013-02-16 01:43:00,
2013-02-15 20:45:00,45.8,43.0,29.99,ESE,122,0.0,0.0,90,0.00,,---,0.00,VWS V14.01,2013-02-16 01:45:00,
2013-02-15 20:48:00,45.8,43.0,29.99,ESE,122,0.0,0.0,90,0.00,,---,0.00,VWS V14.01,2013-02-16 01:48:00,
2013-02-15 20:50:00,45.8,43.0,29.99,ESE,122,0.0,0.0,90,0.00,,---,0.00,VWS V14.01,2013-02-16 01:50:00,
2013-02-15 20:53:00,45.7,42.9,29.99,ESE,122,0.0,0.0,90,0.00,,---,0.00,VWS V14.01,2013-02-16 01:53:00,
2013-02-15 20:55:00,45.6,42.8,29.99,ESE,122,0.0,0.0,90,0.00,,---,0.00,VWS V14.01,2013-02-16 01:55:00,
2013-02-15 20:58:00,45.6,42.8,29.99,ESE,122,0.0,0.0,90,0.00,,---,0.00,VWS V14.01,2013-02-16 01:58:00,
2013-02-15 21:00:00,45.6,42.8,29.98,ESE,122,0.0,0.0,90,0.00,,---,0.00,VWS V14.01,2013-02-16 02:00:00,
2013-02-15 21:03:00,45.6,42.8,29.98,ESE,122,0.0,0.0,90,0.00,,---,0.00,VWS V14.01,2013-02-16 02:03:00,
2013-02-15 21:05:00,45.5,42.7,29.98,ESE,122,0.0,0.0,90,0.00,,---,0.00,VWS V14.01,2013-02-16 02:05:00,
2013-02-15 21:08:00,45.5,42.7,29.98,ESE,122,0.0,0.0,90,0.00,,---,0.00,VWS V14.01,2013-02-16 02:08:00,
2013-02-15 21:10:00,45.4,42.6,29.99,ESE,122,0.0,0.0,90,0.00,,---,0.00,VWS V14.01,2013-02-16 02:10:00,
2013-02-15 21:14:00,45.4,42.6,29.98,ESE,122,0.0,0.0,90,0.00,,---,0.00,VWS V14.01,2013-02-16 02:14:00,
2013-02-15 21:15:00,45.4,42.6,29.98,ESE,122,0.0,0.0,90,0.00,,---,0.00,VWS V14.01,2013-02-16 02:15:00,
2013-02-15 21:19:00,45.4,42.6,29.98,ESE,122,0.0,0.0,90,0.00,,---,0.00,VWS V14.01,2013-02-16 02:19:00,
2013-02-15 21:20:00,45.4,42.6,29.99,ESE,122,0.0,0.0,90,0.00,,---,0.00,VWS V14.01,2013-02-16 02:20:00,
2013-02-15 21:24:00,45.4,42.9,29.98,ESE,122,0.0,0.0,91,0.00,,---,0.00,VWS V14.01,2013-02-16 02:24:00,
2013-02-15 21:25:00,45.3,42.8,29.98,ESE,122,0.0,0.0,91,0.00,,---,0.00,VWS V14.01,2013-02-16 02:25:00,
2013-02-15 21:29:00,45.3,42.8,29.98,ESE,122,0.0,0.0,91,0.00,,---,0.00,VWS V14.01,2013-02-16 02:29:00,
2013-02-15 21:30:00,45.2,42.7,29.98,ESE,122,0.0,0.0,91,0.00,,---,0.00,VWS V14.01,2013-02-16 02:30:00,
2013-02-15 21:34:00,45.2,42.7,29.98,ESE,122,0.0,0.0,91,0.00,,---,0.00,VWS V14.01,2013-02-16 02:34:00,
2013-02-15 21:35:00,45.2,42.7,29.98,ESE,122,0.0,0.0,91,0.00,,---,0.00,VWS V14.01,2013-02-16 02:35:00,
2013-02-15 21:39:00,45.1,42.6,29.98,ESE,122,0.0,0.0,91,0.00,,---,0.00,VWS V14.01,2013-02-16 02:39:00,
2013-02-15 21:40:00,45.2,42.7,29.98,ESE,122,0.0,0.0,91,0.00,,---,0.00,VWS V14.01,2013-02-16 02:40:00,
2013-02-15 21:44:00,45.2,42.7,29.98,ESE,122,0.0,0.0,91,0.00,,---,0.00,VWS V14.01,2013-02-16 02:44:00,
2013-02-15 21:45:00,45.1,42.6,29.98,ESE,122,0.0,0.0,91,0.00,,---,0.00,VWS V14.01,2013-02-16 02:45:00,
2013-02-15 21:49:00,45.1,42.6,29.98,ESE,122,0.0,0.0,91,0.00,,---,0.00,VWS V14.01,2013-02-16 02:49:00,
2013-02-15 21:50:00,45.1,42.6,29.98,ESE,122,0.0,0.0,91,0.00,,---,0.00,VWS V14.01,2013-02-16 02:50:00,
2013-02-15 21:54:00,45.1,42.6,29.99,ESE,122,0.0,0.0,91,0.00,,---,0.00,VWS V14.01,2013-02-16 02:54:00,
2013-02-15 21:55:00,45.1,42.6,29.98,ESE,122,0.0,0.0,91,0.00,,---,0.00,VWS V14.01,2013-02-16 02:55:00,
2013-02-15 21:59:00,45.1,42.6,29.98,ESE,122,0.0,0.0,91,0.00,,---,0.00,VWS V14.01,2013-02-16 02:59:00,
2013-02-15 22:00:00,45.1,42.6,29.98,ESE,122,0.0,0.0,91,0.00,,---,0.00,VWS V14.01,2013-02-16 03:00:00,
2013-02-15 22:04:00,45.0,42.5,29.98,ESE,122,0.0,0.0,91,0.00,,---,0.00,VWS V14.01,2013-02-16 03:04:00,
2013-02-15 22:05:00,45.0,42.5,29.98,ESE,122,0.0,0.0,91,0.00,,---,0.00,VWS V14.01,2013-02-16 03:05:00,
2013-02-15 22:09:00,44.9,42.4,29.98,ESE,122,0.0,0.0,91,0.00,,---,0.00,VWS V14.01,2013-02-16 03:09:00,
2013-02-15 22:10:00,44.9,42.4,29.98,ESE,122,0.0,0.0,91,0.00,,---,0.00,VWS V14.01,2013-02-16 03:10:00,
2013-02-15 22:14:00,45.0,42.8,29.98,ESE,122,0.0,0.0,92,0.00,,---,0.00,VWS V14.01,2013-02-16 03:14:00,
2013-02-15 22:15:00,45.1,42.9,29.98,ESE,122,0.0,0.0,92,0.00,,---,0.00,VWS V14.01,2013-02-16 03:15:00,
2013-02-15 22:19:00,45.1,42.9,29.98,ESE,122,0.0,0.0,92,0.00,,---,0.00,VWS V14.01,2013-02-16 03:19:00,
2013-02-15 22:20:00,45.2,43.0,29.98,ESE,122,0.0,0.0,92,0.00,,---,0.00,VWS V14.01,2013-02-16 03:20:00,
2013-02-15 22:24:00,45.2,43.0,29.98,ESE,122,0.0,0.0,92,0.00,,---,0.00,VWS V14.01,2013-02-16 03:24:00,
2013-02-15 22:25:00,45.2,43.0,29.98,ESE,122,0.0,0.0,92,0.00,,---,0.00,VWS V14.01,2013-02-16 03:25:00,
2013-02-15 22:29:00,45.3,43.1,29.98,ESE,122,0.0,0.0,92,0.00,,---,0.00,VWS V14.01,2013-02-16 03:29:00,
2013-02-15 22:30:00,45.3,43.1,29.98,ESE,122,0.0,0.0,92,0.00,,---,0.00,VWS V14.01,2013-02-16 03:30:00,
2013-02-15 22:34:00,45.3,43.1,29.98,ESE,122,0.0,0.0,92,0.00,,---,0.00,VWS V14.01,2013-02-16 03:34:00,
2013-02-15 22:35:00,45.3,43.1,29.98,ESE,122,0.0,0.0,92,0.00,,---,0.00,VWS V14.01,2013-02-16 03:35:00,
2013-02-15 22:39:00,45.3,43.1,29.98,ESE,122,0.0,0.0,92,0.00,,---,0.00,VWS V14.01,2013-02-16 03:39:00,
2013-02-15 22:40:00,45.3,43.1,29.98,ESE,122,0.0,0.0,92,0.00,,---,0.00,VWS V14.01,2013-02-16 03:40:00,
2013-02-15 22:44:00,45.3,43.1,29.98,ESE,122,0.0,0.0,92,0.00,,---,0.00,VWS V14.01,2013-02-16 03:44:00,
2013-02-15 22:45:00,45.3,43.4,29.98,ESE,122,0.0,0.0,93,0.00,,---,0.00,VWS V14.01,2013-02-16 03:45:00,
2013-02-15 22:49:00,45.3,43.4,29.98,ESE,122,0.0,0.0,93,0.00,,---,0.00,VWS V14.01,2013-02-16 03:49:00,
2013-02-15 22:50:00,45.3,43.4,29.98,ESE,122,0.0,0.0,93,0.00,,---,0.00,VWS V14.01,2013-02-16 03:50:00,
2013-02-15 22:54:00,45.3,43.1,29.98,ESE,122,0.0,0.0,92,0.00,,---,0.00,VWS V14.01,2013-02-16 03:54:00,
2013-02-15 22:55:00,45.3,43.4,29.98,ESE,122,0.0,0.0,93,0.00,,---,0.00,VWS V14.01,2013-02-16 03:55:00,
2013-02-15 22:59:00,45.4,43.5,29.98,ESE,122,0.0,0.0,93,0.00,,---,0.00,VWS V14.01,2013-02-16 03:59:00,
2013-02-15 23:00:00,45.4,43.5,29.98,ESE,122,0.0,0.0,93,0.00,,---,0.00,VWS V14.01,2013-02-16 04:00:00,
2013-02-15 23:04:00,45.3,43.4,29.98,ESE,122,0.0,0.0,93,0.00,,---,0.00,VWS V14.01,2013-02-16 04:04:00,
2013-02-15 23:05:00,45.4,43.5,29.98,ESE,122,0.0,0.0,93,0.00,,---,0.00,VWS V14.01,2013-02-16 04:05:00,
2013-02-15 23:09:00,45.4,43.5,29.98,ESE,122,0.0,0.0,93,0.00,,---,0.00,VWS V14.01,2013-02-16 04:09:00,
2013-02-15 23:10:00,45.4,43.5,29.97,ESE,122,0.0,0.0,93,0.00,,---,0.00,VWS V14.01,2013-02-16 04:10:00,
2013-02-15 23:14:00,45.4,43.5,29.98,ESE,122,0.0,0.0,93,0.00,,---,0.00,VWS V14.01,2013-02-16 04:14:00,
2013-02-15 23:15:00,45.4,43.5,29.97,ESE,122,0.0,0.0,93,0.00,,---,0.00,VWS V14.01,2013-02-16 04:15:00,
2013-02-15 23:19:00,45.4,43.5,29.97,ESE,122,0.0,0.0,93,0.00,,---,0.00,VWS V14.01,2013-02-16 04:19:00,
2013-02-15 23:20:00,45.4,43.5,29.97,ESE,122,0.0,0.0,93,0.00,,---,0.00,VWS V14.01,2013-02-16 04:20:00,
2013-02-15 23:24:00,45.5,43.6,29.97,ESE,122,0.0,0.0,93,0.00,,---,0.00,VWS V14.01,2013-02-16 04:24:00,
2013-02-15 23:25:00,45.6,43.7,29.97,ESE,122,0.0,0.0,93,0.00,,---,0.00,VWS V14.01,2013-02-16 04:25:00,
2013-02-15 23:29:00,45.6,43.7,29.97,ESE,122,0.0,0.0,93,0.00,,---,0.00,VWS V14.01,2013-02-16 04:29:00,
2013-02-15 23:30:00,45.6,43.7,29.97,ESE,122,0.0,0.0,93,0.00,,---,0.00,VWS V14.01,2013-02-16 04:30:00,
2013-02-15 23:34:00,45.6,43.7,29.97,ESE,122,0.0,0.0,93,0.00,,---,0.00,VWS V14.01,2013-02-16 04:34:00,
2013-02-15 23:35:00,45.7,44.1,29.97,ESE,122,0.0,0.0,94,0.00,,---,0.00,VWS V14.01,2013-02-16 04:35:00,
2013-02-15 23:39:00,45.7,44.1,29.97,ESE,122,0.0,0.0,94,0.00,,---,0.00,VWS V14.01,2013-02-16 04:39:00,
2013-02-15 23:40:00,45.7,43.8,29.97,ESE,122,0.0,0.0,93,0.00,,---,0.00,VWS V14.01,2013-02-16 04:40:00,
2013-02-15 23:44:00,45.6,43.7,29.96,ESE,122,0.0,0.0,93,0.00,,---,0.00,VWS V14.01,2013-02-16 04:44:00,
2013-02-15 23:45:00,45.6,43.7,29.96,ESE,122,0.0,0.0,93,0.00,,---,0.00,VWS V14.01,2013-02-16 04:45:00,
2013-02-15 23:49:00,45.6,43.7,29.96,ESE,122,0.0,0.0,93,0.00,,---,0.00,VWS V14.01,2013-02-16 04:49:00,
2013-02-15 23:50:00,45.6,43.7,29.96,ESE,122,0.0,0.0,93,0.00,,---,0.00,VWS V14.01,2013-02-16 04:50:00,
2013-02-15 23:54:00,45.6,43.7,29.96,ESE,122,0.0,0.0,93,0.00,,---,0.00,VWS V14.01,2013-02-16 04:54:00,
2013-02-15 23:55:00,45.6,44.0,29.96,ESE,122,0.0,0.0,94,0.00,,---,0.00,VWS V14.01,2013-02-16 04:55:00,
2013-02-15 23:59:00,45.7,44.1,29.96,ESE,122,0.0,0.0,94,0.00,,---,0.00,VWS V14.01,2013-02-16 04:59:00,